Prague, Czech Republic
Current Conditions -  °F | °C
As of 7:00 AM on Saturday 25 Oct 2014 (Local Time) from LKKB Reporting Station
Moderate Fog Moderate Fog  
Wind Chill: 37°   Ceiling: 200
Heat Index: 37°   Visibility: 0.37mi
Dew Point: 37°   Wind: 2mph
Humidity: 100%   Direction: NA
Pressure: 30.15"   Gusts: NA
Location:  50.08°N, 14.43°E
Report Text: LKKB 250500Z VRB02KT 0600 R24/0600N FG VV002 03/03 Q1021 NOSIG
Loading
Personal Weather Stations






























Interactive Weather Map
Tropical Storm Tracking
New forecast layout! Learn more

10-Day Weather Forecast

Advertisements
Track Severe Weather on mobile